Time;durP1;ratioP1;P1;durP2;ratioP2;P2;SDS_P1;SDS_P2;PMS_P1;PMS_P2;Temp;Humidity;BMP_temperature;BMP_pressure;BME280_temperature;BME280_humidity;BME280_pressure;Samples;Min_cycle;Max_cycle;Signal;HPM_P1;HPM_P2
2022/04/22 00:01:36;;;;;;;2.10;1.80;;;;;;;;;;5091592;28;20472;-70
2022/04/22 00:04:03;;;;;;;2.73;2.00;;;;;;;;;;5087119;28;20812;-71
2022/04/22 00:06:31;;;;;;;2.17;1.93;;;;;;;;;;5083891;28;20475;-70
2022/04/22 00:08:58;;;;;;;1.83;1.73;;;;;;;;;;5083887;28;20784;-71
2022/04/22 00:11:32;;;;;;;2.53;2.00;;;;;;;;;;5082948;28;20535;-72
2022/04/22 00:14:01;;;;;;;4.73;2.20;;;;;;;;;;5087529;28;20453;-71
2022/04/22 00:16:30;;;;;;;2.77;1.53;;;;;;;;;;5088125;28;20452;-70
2022/04/22 00:18:57;;;;;;;2.17;1.80;;;;;;;;;;5083070;28;20481;-71
2022/04/22 00:21:26;;;;;;;2.17;1.80;;;;;;;;;;5080746;28;20487;-69
2022/04/22 00:23:54;;;;;;;1.60;1.40;;;;;;;;;;5091297;28;20530;-71
2022/04/22 00:26:21;;;;;;;1.73;1.63;;;;;;;;;;5090465;28;20472;-70
2022/04/22 00:28:49;;;;;;;4.50;2.30;;;;;;;;;;5082617;28;20920;-71
2022/04/22 00:31:17;;;;;;;2.33;1.90;;;;;;;;;;5089895;28;21290;-70
2022/04/22 00:33:44;;;;;;;1.80;1.53;;;;;;;;;;5083185;28;20948;-70
2022/04/22 00:36:12;;;;;;;1.50;1.40;;;;;;;;;;5090732;28;21020;-70
2022/04/22 00:38:39;;;;;;;1.77;1.67;;;;;;;;;;5089612;28;20499;-70
2022/04/22 00:41:06;;;;;;;2.13;1.83;;;;;;;;;;5090209;28;20448;-70
2022/04/22 00:43:41;;;;;;;2.17;1.97;;;;;;;;;;5080623;28;20793;-70
2022/04/22 00:46:09;;;;;;;1.70;1.60;;;;;;;;;;5084177;28;20961;-71
2022/04/22 00:48:37;;;;;;;2.73;1.80;;;;;;;;;;5074477;28;20456;-70
2022/04/22 00:51:05;;;;;;;2.23;1.70;;;;;;;;;;5084795;28;20524;-70
2022/04/22 00:53:32;;;;;;;2.40;1.73;;;;;;;;;;5088739;28;20454;-71
2022/04/22 00:56:00;;;;;;;3.90;2.13;;;;;;;;;;5090612;28;20450;-70
2022/04/22 00:58:27;;;;;;;2.90;2.00;;;;;;;;;;5080716;28;20562;-70
2022/04/22 01:00:54;;;;;;;1.80;1.70;;;;;;;;;;5072648;28;20467;-71
2022/04/22 01:03:22;;;;;;;2.23;2.00;;;;;;;;;;5082467;28;20513;-71
2022/04/22 01:11:23;;;;;;;2.07;1.87;;;;;;;;;;5085992;28;20413;-70
2022/04/22 01:13:51;;;;;;;2.30;1.67;;;;;;;;;;5079609;28;20529;-70
2022/04/22 01:16:18;;;;;;;2.63;2.20;;;;;;;;;;5086697;28;20452;-71
2022/04/22 01:18:45;;;;;;;2.77;2.57;;;;;;;;;;5075472;28;20533;-70
2022/04/22 01:21:14;;;;;;;4.23;2.50;;;;;;;;;;5090617;28;20444;-71
2022/04/22 01:23:41;;;;;;;3.43;2.17;;;;;;;;;;5083415;28;20474;-71
2022/04/22 01:26:09;;;;;;;1.97;1.77;;;;;;;;;;5082851;28;20477;-71
2022/04/22 01:28:36;;;;;;;2.00;1.80;;;;;;;;;;5089375;28;20918;-70
2022/04/22 01:31:03;;;;;;;3.37;2.40;;;;;;;;;;5081575;28;20944;-71
2022/04/22 01:33:30;;;;;;;3.47;2.30;;;;;;;;;;5079204;28;20531;-70
2022/04/22 01:35:57;;;;;;;2.70;2.20;;;;;;;;;;5090396;28;20453;-70
2022/04/22 01:38:26;;;;;;;2.73;2.07;;;;;;;;;;5084164;28;20539;-70
2022/04/22 01:40:54;;;;;;;3.03;2.60;;;;;;;;;;5084910;28;20438;-70
2022/04/22 01:43:21;;;;;;;1.90;1.80;;;;;;;;;;5086745;28;20447;-70
2022/04/22 01:45:52;;;;;;;3.33;2.40;;;;;;;;;;5087518;28;20565;-71
2022/04/22 01:48:19;;;;;;;2.80;2.23;;;;;;;;;;5078215;28;20441;-70
2022/04/22 01:50:46;;;;;;;2.87;2.57;;;;;;;;;;5090975;28;20661;-70
2022/04/22 01:53:13;;;;;;;2.67;2.27;;;;;;;;;;5087684;28;20532;-71
2022/04/22 01:55:42;;;;;;;3.00;1.93;;;;;;;;;;5090997;28;20448;-71
2022/04/22 01:58:09;;;;;;;3.40;2.53;;;;;;;;;;5078286;28;21038;-70
2022/04/22 02:00:36;;;;;;;2.97;2.67;;;;;;;;;;5090488;28;20529;-70
2022/04/22 02:03:03;;;;;;;4.30;2.63;;;;;;;;;;5093799;28;20442;-70
2022/04/22 02:05:32;;;;;;;3.17;2.40;;;;;;;;;;5082184;28;20456;-70
2022/04/22 02:07:59;;;;;;;4.67;2.97;;;;;;;;;;5083329;28;20470;-70
2022/04/22 02:10:27;;;;;;;3.77;2.40;;;;;;;;;;5082026;28;20522;-70
2022/04/22 02:12:56;;;;;;;4.50;2.60;;;;;;;;;;5091060;28;20504;-70
2022/04/22 02:15:24;;;;;;;4.50;2.80;;;;;;;;;;5093406;28;20949;-70
2022/04/22 02:17:51;;;;;;;3.70;3.10;;;;;;;;;;5091920;28;20463;-71
2022/04/22 02:20:18;;;;;;;2.80;2.43;;;;;;;;;;5088882;28;20449;-70
2022/04/22 02:22:46;;;;;;;4.67;2.87;;;;;;;;;;5091881;28;20441;-70
2022/04/22 02:25:13;;;;;;;3.03;1.97;;;;;;;;;;5093124;28;20474;-70
2022/04/22 02:30:27;;;;;;;2.63;2.00;;;;;;;;;;5080460;28;20402;-70
2022/04/22 02:32:54;;;;;;;4.90;3.03;;;;;;;;;;5091611;28;20438;-72
2022/04/22 02:35:21;;;;;;;3.67;3.20;;;;;;;;;;5080525;28;20529;-69
2022/04/22 02:37:48;;;;;;;3.40;3.10;;;;;;;;;;5078618;28;20447;-71
2022/04/22 02:45:26;;;;;;;3.10;2.47;;;;;;;;;;5092984;28;20442;-71
2022/04/22 02:45:50;;;;;;;4.43;2.50;;;;;;;;;;5091788;28;20637;-70
2022/04/22 02:48:18;;;;;;;5.13;3.13;;;;;;;;;;5089847;28;20476;-71
2022/04/22 02:50:45;;;;;;;3.50;3.00;;;;;;;;;;5091123;28;20975;-70
2022/04/22 02:53:12;;;;;;;2.30;2.10;;;;;;;;;;5085191;28;20867;-70
2022/04/22 02:55:43;;;;;;;4.73;3.20;;;;;;;;;;5092173;28;20448;-70
2022/04/22 02:58:10;;;;;;;4.40;2.63;;;;;;;;;;5084308;28;20537;-70
2022/04/22 03:00:37;;;;;;;4.50;3.43;;;;;;;;;;5086498;28;20437;-70
2022/04/22 03:03:06;;;;;;;3.07;2.77;;;;;;;;;;5081469;28;20440;-69
2022/04/22 03:05:33;;;;;;;2.83;2.27;;;;;;;;;;5087194;28;20455;-71
2022/04/22 03:08:00;;;;;;;3.57;2.80;;;;;;;;;;5077578;28;20515;-70
2022/04/22 03:10:28;;;;;;;2.97;2.70;;;;;;;;;;5083601;28;20957;-70
2022/04/22 03:12:55;;;;;;;3.17;2.70;;;;;;;;;;5083975;28;20441;-71
2022/04/22 03:15:22;;;;;;;6.23;3.70;;;;;;;;;;5092377;28;20810;-71
2022/04/22 03:17:50;;;;;;;4.33;3.03;;;;;;;;;;5079765;28;20452;-70
2022/04/22 03:20:18;;;;;;;2.37;1.40;;;;;;;;;;5092081;28;20453;-70
2022/04/22 03:22:45;;;;;;;2.60;2.40;;;;;;;;;;5094620;28;20448;-71
2022/04/22 03:25:13;;;;;;;3.77;2.70;;;;;;;;;;5095566;28;20453;-71
2022/04/22 03:27:40;;;;;;;2.80;2.50;;;;;;;;;;5081438;28;20496;-70
2022/04/22 03:30:08;;;;;;;3.43;3.00;;;;;;;;;;5090774;28;20462;-70
2022/04/22 03:32:35;;;;;;;3.03;2.17;;;;;;;;;;5094113;28;20435;-70
2022/04/22 03:35:02;;;;;;;2.97;1.93;;;;;;;;;;5093041;28;20466;-70
2022/04/22 03:37:31;;;;;;;2.47;1.90;;;;;;;;;;5087006;28;20447;-69
2022/04/22 03:39:58;;;;;;;1.97;1.73;;;;;;;;;;5089487;28;20443;-70
2022/04/22 03:42:25;;;;;;;2.73;2.53;;;;;;;;;;5087197;28;20793;-70
2022/04/22 03:44:52;;;;;;;4.00;3.00;;;;;;;;;;5080831;28;20453;-69
2022/04/22 03:47:20;;;;;;;3.13;2.37;;;;;;;;;;5090612;28;20470;-70
2022/04/22 03:49:48;;;;;;;4.73;2.70;;;;;;;;;;5087927;28;20822;-71
2022/04/22 03:52:15;;;;;;;3.77;2.30;;;;;;;;;;5087979;28;20444;-70
2022/04/22 03:54:43;;;;;;;4.50;2.73;;;;;;;;;;5082890;28;20798;-70
2022/04/22 03:59:55;;;;;;;4.10;3.70;;;;;;;;;;5087022;28;20902;-70
2022/04/22 04:02:22;;;;;;;4.33;2.80;;;17.30;1.00;;;;;;5091381;28;20490;-71
2022/04/22 04:04:50;;;;;;;2.53;2.13;;;7.70;1.00;;;;;;5090955;28;20953;-69
2022/04/22 04:07:17;;;;;;;3.20;2.40;;;7.60;1.00;;;;;;5084761;28;20506;-70
2022/04/22 04:17:58;;;;;;;3.80;2.43;;;7.40;1.00;;;;;;5090110;28;20833;-70
2022/04/22 04:23:15;;;;;;;1.83;1.73;;;7.20;99.90;;;;;;5088120;28;20851;-70
2022/04/22 04:25:44;;;;;;;5.70;3.50;;;7.00;1.00;;;;;;5090688;28;20442;-70
2022/04/22 04:28:13;;;;;;;4.60;2.50;;;7.10;1.00;;;;;;5074233;28;20572;-70
2022/04/22 04:30:40;;;;;;;4.03;3.63;;;7.10;1.00;;;;;;5080221;28;20546;-70
2022/04/22 04:33:07;;;;;;;2.70;2.50;;;7.20;1.00;;;;;;5088630;28;20441;-70
2022/04/22 04:35:35;;;;;;;3.37;2.60;;;7.30;1.00;;;;;;5088606;28;20476;-71
2022/04/22 04:38:02;;;;;;;2.70;2.20;;;7.30;99.90;;;;;;5088014;28;20448;-71
2022/04/22 04:40:29;;;;;;;5.00;3.30;;;7.40;1.00;;;;;;5090615;28;20436;-70
2022/04/22 04:42:57;;;;;;;5.50;2.60;;;7.30;99.90;;;;;;5076656;28;20442;-69
2022/04/22 04:45:24;;;;;;;4.93;3.17;;;7.10;1.00;;;;;;5082722;28;20433;-71
2022/04/22 04:47:51;;;;;;;3.50;3.20;;;7.20;1.00;;;;;;5089907;28;20563;-71
2022/04/22 04:50:18;;;;;;;3.30;2.40;;;7.10;1.00;;;;;;5090482;28;20457;-71
2022/04/22 04:52:45;;;;;;;3.20;2.90;;;7.20;1.00;;;;;;5090077;28;20472;-71
2022/04/22 04:55:14;;;;;;;4.77;3.33;;;7.20;99.90;;;;;;5090418;28;20468;-71
2022/04/22 04:57:42;;;;;;;10.33;3.83;;;7.30;1.00;;;;;;5089383;28;20793;-71
2022/04/22 05:00:12;;;;;;;3.07;2.40;;;7.00;1.00;;;;;;5090596;28;20469;-70
2022/04/22 05:02:40;;;;;;;5.27;2.50;;;6.80;1.00;;;;;;5090073;28;20791;-72
2022/04/22 05:05:09;;;;;;;3.80;3.03;;;7.10;1.00;;;;;;5090653;28;20942;-71
2022/04/22 05:07:48;;;;;;;3.60;2.67;;;6.80;1.00;;;;;;5089193;28;20826;-72
2022/04/22 05:10:15;;;;;;;4.60;2.80;;;7.20;1.00;;;;;;5090760;28;20437;-73
2022/04/22 05:12:43;;;;;;;3.80;3.30;;;7.30;1.00;;;;;;5089362;28;20442;-73
2022/04/22 05:15:12;;;;;;;3.93;3.13;;;7.30;99.90;;;;;;5090672;28;20448;-73
2022/04/22 05:17:42;;;;;;;7.23;5.30;;;7.40;99.90;;;;;;5085170;28;20851;-71
2022/04/22 05:20:10;;;;;;;4.90;4.43;;;7.60;1.00;;;;;;5075125;28;20434;-72
2022/04/22 05:22:38;;;;;;;5.00;3.43;;;7.50;1.00;;;;;;5087639;28;20520;-71
2022/04/22 05:25:06;;;;;;;7.30;3.70;;;7.50;1.00;;;;;;5090344;28;20441;-71
2022/04/22 05:27:33;;;;;;;5.20;2.67;;;7.60;1.00;;;;;;5075428;28;20558;-69
2022/04/22 05:32:48;;;;;;;3.10;2.30;;;7.50;99.90;;;;;;5089308;28;20417;-70
2022/04/22 05:35:16;;;;;;;5.80;3.67;;;7.60;1.00;;;;;;5090669;28;20788;-70
2022/04/22 05:37:47;;;;;;;3.77;3.47;;;7.80;1.00;;;;;;5088833;28;20532;-71
2022/04/22 05:40:15;;;;;;;6.70;4.07;;;8.00;1.00;;;;;;5090517;28;20915;-71
2022/04/22 05:42:42;;;;;;;6.80;4.67;;;;;;;;;;5090202;28;20498;-71
2022/04/22 05:45:10;;;;;;;3.53;3.10;;;;;;;;;;5090430;28;20434;-70
2022/04/22 05:47:37;;;;;;;6.77;5.33;;;;;;;;;;5089641;28;20492;-70
2022/04/22 05:50:07;;;;;;;8.07;5.60;;;;;;;;;;5090575;28;20531;-71
2022/04/22 05:52:34;;;;;;;8.00;5.60;;;;;;;;;;5089945;28;20470;-71
2022/04/22 05:55:03;;;;;;;7.27;4.77;;;;;;;;;;5090708;28;20505;-71
2022/04/22 05:57:31;;;;;;;8.57;4.07;;;;;;;;;;5089126;28;20909;-70
2022/04/22 05:59:58;;;;;;;7.30;4.57;;;;;;;;;;5090356;28;20429;-72
2022/04/22 06:02:26;;;;;;;6.90;5.17;;;;;;;;;;5090261;28;20447;-71
2022/04/22 06:04:53;;;;;;;4.97;3.83;;;;;;;;;;5090339;28;20451;-70
2022/04/22 06:07:21;;;;;;;6.90;4.90;;;;;;;;;;5090061;28;20512;-70
2022/04/22 06:12:34;;;;;;;4.90;4.50;;;;;;;;;;5089740;28;20893;-70
2022/04/22 06:15:04;;;;;;;7.70;4.80;;;;;;;;;;5090094;28;20447;-71
2022/04/22 06:17:31;;;;;;;6.33;4.03;;;;;;;;;;5089553;28;20450;-70
2022/04/22 06:19:59;;;;;;;8.77;5.27;;;;;;;;;;5090192;28;20453;-70
2022/04/22 06:22:27;;;;;;;8.87;5.67;;;;;;;;;;5090207;28;20916;-72
2022/04/22 06:24:55;;;;;;;5.93;4.93;;;;;;;;;;5090926;28;20435;-71
2022/04/22 06:27:26;;;;;;;7.17;6.20;;;;;;;;;;5093249;28;20502;-71
2022/04/22 06:29:53;;;;;;;7.60;5.33;;;;;;;;;;5094189;28;20436;-71
2022/04/22 06:32:22;;;;;;;7.37;5.60;;;;;;;;;;5093760;28;21002;-71
2022/04/22 06:34:50;;;;;;;6.27;4.70;;;;;;;;;;5092818;28;20469;-71
2022/04/22 06:37:17;;;;;;;9.10;5.97;;;;;;;;;;5093489;28;20447;-71
2022/04/22 06:48:02;;;;;;;6.97;5.40;;;;;;;;;;5092862;28;20463;-72
2022/04/22 06:50:30;;;;;;;7.17;5.50;;;;;;;;;;5092636;28;20439;-70
2022/04/22 06:52:57;;;;;;;10.80;6.23;;;;;;;;;;5093343;28;20459;-71
2022/04/22 06:55:26;;;;;;;7.40;5.10;;;;;;;;;;5093307;28;20527;-71
2022/04/22 06:57:55;;;;;;;10.93;6.83;;;;;;;;;;5092712;28;20564;-72
2022/04/22 07:00:22;;;;;;;6.03;5.23;;;;;;;;;;5093236;28;20440;-71
2022/04/22 07:02:50;;;;;;;7.73;4.93;;;;;;;;;;5092553;28;20461;-70
2022/04/22 07:05:17;;;;;;;10.10;6.07;;;;;;;;;;5092944;28;20466;-71
2022/04/22 07:07:44;;;;;;;7.87;6.23;;;;;;;;;;5091872;28;20483;-71
2022/04/22 07:10:12;;;;;;;9.90;6.77;;;;;;;;;;5092549;28;20524;-72
2022/04/22 07:12:41;;;;;;;7.20;5.03;;;;;;;;;;5092079;28;20982;-71
2022/04/22 07:15:09;;;;;;;7.93;7.13;;;;;;;;;;5092857;28;20438;-71
2022/04/22 07:17:36;;;;;;;8.67;6.70;;;;;;;;;;5091755;28;20449;-71
2022/04/22 07:20:05;;;;;;;7.93;4.90;;;;;;;;;;5092689;28;20445;-71
2022/04/22 07:22:33;;;;;;;6.20;5.50;;;;;;;;;;5092476;28;20443;-71
2022/04/22 07:25:00;;;;;;;10.93;5.60;;;;;;;;;;5092335;28;20485;-71
2022/04/22 07:27:30;;;;;;;9.57;5.20;;;;;;;;;;5091801;28;20519;-71
2022/04/22 07:29:59;;;;;;;10.67;5.93;;;;;;;;;;5092272;28;20449;-72
2022/04/22 07:32:27;;;;;;;9.30;5.63;;;;;;;;;;5092402;28;20443;-71
2022/04/22 07:34:54;;;;;;;8.30;6.13;;;;;;;;;;5092185;28;20438;-71
2022/04/22 07:37:22;;;;;;;10.77;7.13;;;;;;;;;;5091666;28;20447;-70
2022/04/22 07:39:50;;;;;;;9.57;6.23;;;;;;;;;;5091832;28;20445;-71
2022/04/22 07:42:18;;;;;;;13.13;6.20;;;;;;;;;;5080477;28;20448;-71
2022/04/22 07:47:33;;;;;;;9.10;6.03;;;;;;;;;;5091011;28;20508;-71
2022/04/22 07:50:05;;;;;;;12.07;7.60;;;;;;;;;;5091652;28;20871;-71
2022/04/22 07:52:32;;;;;;;9.70;6.20;;;;;;;;;;5091400;28;20440;-71
2022/04/22 07:55:00;;;;;;;7.13;6.17;;;;;;;;;;5092003;28;20436;-71
2022/04/22 07:57:27;;;;;;;13.20;6.53;;;;;;;;;;5091246;28;20522;-70
2022/04/22 07:59:55;;;;;;;14.40;7.00;;;;;;;;;;5092291;28;20448;-72
2022/04/22 08:02:22;;;;;;;8.90;7.13;;;;;;;;;;5092141;28;20848;-71
2022/04/22 08:04:50;;;;;;;7.93;5.80;;;;;;;;;;5090893;28;20484;-71
2022/04/22 08:07:18;;;;;;;12.23;7.23;;;;;;;;;;5091499;28;20442;-72
2022/04/22 08:09:46;;;;;;;10.00;6.20;;;;;;;;;;5091151;28;20448;-72
2022/04/22 08:12:13;;;;;;;6.50;5.50;;;;;;;;;;5091557;28;20463;-72
2022/04/22 08:14:41;;;;;;;8.33;6.23;;;;;;;;;;5090982;28;20450;-71
2022/04/22 08:17:08;;;;;;;10.07;6.10;;;;;;;;;;5091243;28;20471;-71
2022/04/22 08:19:36;;;;;;;6.80;4.90;;;;;;;;;;5090548;28;20520;-71
2022/04/22 08:22:05;;;;;;;8.80;5.97;;;;;;;;;;5091187;28;20989;-71
2022/04/22 08:24:32;;;;;;;8.07;5.43;;;;;;;;;;5090399;28;20476;-71
2022/04/22 08:27:00;;;;;;;10.47;6.10;;;;;;;;;;5077160;28;20477;-71
2022/04/22 08:29:27;;;;;;;9.53;6.50;;;;;;;;;;5090785;28;21398;-71
2022/04/22 08:31:55;;;;;;;9.70;5.40;;;;;;;;;;5091194;28;20734;-71
2022/04/22 08:34:23;;;;;;;11.00;7.67;;;;;;;;;;5091061;28;20556;-72
2022/04/22 08:36:50;;;;;;;8.33;5.27;;;;;;;;;;5090524;28;20483;-71
2022/04/22 08:39:18;;;;;;;8.03;5.83;;;;;;;;;;5091430;28;20458;-72
2022/04/22 08:41:46;;;;;;;9.90;5.97;;;;;;;;;;5090950;28;20444;-71
2022/04/22 08:44:14;;;;;;;6.07;5.50;;;;;;;;;;5091160;28;20803;-72
2022/04/22 08:52:13;;;;;;;6.70;5.53;;;;;;;;;;5090995;28;20563;-71
2022/04/22 08:54:45;;;;;;;10.20;5.60;;;;;;;;;;5090344;28;20461;-71
2022/04/22 08:57:13;;;;;;;7.60;5.97;;;;;;;;;;5090398;28;20546;-73
2022/04/22 08:59:42;;;;;;;6.50;5.80;;;;;;;;;;5090770;28;20465;-70
2022/04/22 09:02:09;;;;;;;7.73;5.90;;;;;;;;;;5090853;28;20475;-72
2022/04/22 09:04:36;;;;;;;10.23;6.30;;;;;;;;;;5090413;28;20503;-71
2022/04/22 09:07:05;;;;;;;7.40;5.33;;;;;;;;;;5090633;28;20843;-72
2022/04/22 09:09:33;;;;;;;8.50;6.40;;;;;;;;;;5090250;28;20475;-72
2022/04/22 09:12:12;;;;;;;8.17;5.70;;;;;;;;;;5090675;28;20499;-71
2022/04/22 09:14:45;;;;;;;10.03;6.67;;;;;;;;;;5090598;28;20802;-71
2022/04/22 09:17:13;;;;;;;8.70;6.20;;;;;;;;;;5090576;28;20436;-71
2022/04/22 09:19:43;;;;;;;11.20;6.10;;;;;;;;;;5090007;28;20462;-71
2022/04/22 09:22:10;;;;;;;8.97;6.20;;;;;;;;;;5084385;28;20442;-71
2022/04/22 09:24:47;;;;;;;8.23;5.87;;;;;;;;;;5083732;28;20535;-71
2022/04/22 09:27:16;;;;;;;7.37;5.60;;;;;;;;;;5090518;28;20738;-72
2022/04/22 09:29:44;;;;;;;9.70;5.30;;;;;;;;;;5090175;28;20560;-71
2022/04/22 09:32:12;;;;;;;8.07;5.03;;;;;;;;;;5090621;28;20444;-72
2022/04/22 09:34:42;;;;;;;10.13;5.30;;;;;;;;;;5089617;28;20823;-71
2022/04/22 09:42:56;;;;;;;6.60;5.03;;;;;;;;;;5090684;28;20420;-71
2022/04/22 09:45:24;;;;;;;6.63;5.93;;;;;;;;;;5090727;28;20516;-71
2022/04/22 09:47:59;;;;;;;6.93;5.67;;;;;;;;;;5089416;28;20504;-73
2022/04/22 09:50:43;;;;;;;7.07;5.77;;;;;;;;;;5090219;28;20913;-72
2022/04/22 09:53:11;;;;;;;8.07;6.10;;;;;;;;;;5077768;28;20769;-72
2022/04/22 09:55:48;;;;;;;5.10;4.60;;;;;;;;;;5089410;28;20444;-72
2022/04/22 09:58:23;;;;;;;9.73;7.10;;;;;;;;;;5090052;28;20486;-71
2022/04/22 10:00:55;;;;;;;9.10;6.07;;;;;;;;;;5075485;28;20463;-71
2022/04/22 10:03:22;;;;;;;10.93;6.37;;;;;;;;;;5086242;28;20439;-71
2022/04/22 10:05:53;;;;;;;8.00;5.80;;;;;;;;;;5093367;28;20795;-70
2022/04/22 10:08:22;;;;;;;5.23;4.70;;;;;;;;;;5093822;28;20525;-72
2022/04/22 10:10:52;;;;;;;10.37;6.53;;;;;;;;;;5093146;28;20455;-71
2022/04/22 10:13:21;;;;;;;7.90;6.47;;;;;;;;;;5094540;28;20528;-71
2022/04/22 10:15:50;;;;;;;11.63;6.37;;;;;;;;;;5086475;28;21318;-72
2022/04/22 10:18:18;;;;;;;8.03;6.07;;;;;;;;;;5087664;28;20755;-71
2022/04/22 10:20:46;;;;;;;7.33;5.90;;;;;;;;;;5092771;28;20474;-72
2022/04/22 10:23:14;;;;;;;6.70;5.03;;;;;;;;;;5093747;28;20429;-72
2022/04/22 10:25:41;;;;;;;8.60;5.27;;;;;;;;;;5093977;28;20444;-73
2022/04/22 10:28:10;;;;;;;6.23;5.60;;;;;;;;;;5094704;28;20484;-71
2022/04/22 10:30:39;;;;;;;7.60;5.90;;;;;;;;;;5094331;28;20942;-71
2022/04/22 10:33:07;;;;;;;6.70;4.97;;;;;;;;;;5095695;28;20440;-71
2022/04/22 10:35:39;;;;;;;10.57;6.50;;;;;;;;;;5095016;28;20436;-71
2022/04/22 10:38:07;;;;;;;5.60;5.00;;;;;;;;;;5094610;28;20513;-71
2022/04/22 10:40:37;;;;;;;7.33;5.13;;;;;;;;;;5093027;28;20442;-71
2022/04/22 10:43:04;;;;;;;6.53;5.33;;;;;;;;;;5093321;28;20454;-72
2022/04/22 10:48:24;;;;;;;7.68;5.25;;;;;;;;;;5093198;28;20459;-72
2022/04/22 10:50:58;;;;;;;7.10;5.47;;;;;;;;;;5092323;28;20197;-72
2022/04/22 10:53:26;;;;;;;6.90;4.83;;;;;;;;;;5093380;28;20501;-72
2022/04/22 10:55:54;;;;;;;9.77;5.85;;;;;;;;;;5093078;28;20441;-71
2022/04/22 10:58:23;;;;;;;10.00;5.30;;;;;;;;;;5092611;28;20719;-72
2022/04/22 11:00:51;;;;;;;7.73;5.40;;;;;;;;;;5092263;28;20761;-72
2022/04/22 11:03:19;;;;;;;7.13;5.27;;;;;;;;;;5093203;28;20437;-72
2022/04/22 11:05:48;;;;;;;9.63;5.50;;;;;;;;;;5092360;28;20928;-73
2022/04/22 11:08:35;;;;;;;5.57;4.97;;;;;;;;;;5092315;28;20472;-71
2022/04/22 11:11:04;;;;;;;6.57;4.77;;;;;;;;;;5092393;28;20472;-71
2022/04/22 11:13:33;;;;;;;8.70;5.47;;;;;;;;;;5091798;28;20445;-72
2022/04/22 11:16:00;;;;;;;8.40;5.77;;;;;;;;;;5092427;28;20455;-72
2022/04/22 11:18:28;;;;;;;7.93;5.70;;;;;;;;;;5091948;28;20476;-71
2022/04/22 11:21:03;;;;;;;8.10;5.77;;;;;;;;;;5092379;28;20639;-71
2022/04/22 11:23:37;;;;;;;9.90;6.13;;;;;;;;;;5091832;28;20439;-71
2022/04/22 11:26:05;;;;;;;6.43;4.97;;;;;;;;;;5092461;28;20448;-71
2022/04/22 11:28:35;;;;;;;5.93;5.23;;;;;;;;;;5091988;28;20481;-72
2022/04/22 11:31:04;;;;;;;6.17;4.77;;;;;;;;;;5092601;28;20472;-71
2022/04/22 11:33:36;;;;;;;7.53;5.90;;;;;;;;;;5091671;28;20440;-70
2022/04/22 11:36:07;;;;;;;10.63;5.50;;;;;;;;;;5091854;28;20811;-71
2022/04/22 11:38:35;;;;;;;7.53;5.30;;;;;;;;;;5091432;28;20531;-71
2022/04/22 11:41:02;;;;;;;8.27;5.30;;;;;;;;;;5092195;28;20518;-71
2022/04/22 11:43:30;;;;;;;7.53;5.30;;;;;;;;;;5091816;28;20524;-71
2022/04/22 11:45:57;;;;;;;7.27;5.90;;;;;;;;;;5091560;28;20453;-71
2022/04/22 11:48:25;;;;;;;6.37;5.77;;;;;;;;;;5092093;28;20429;-71
2022/04/22 11:50:53;;;;;;;8.17;6.40;;;8.10;1.00;;;;;;5090774;28;20527;-72
2022/04/22 11:53:24;;;;;;;7.77;6.30;;;17.80;66.00;;;;;;5091694;28;20444;-71
2022/04/22 11:55:51;;;;;;;9.07;6.10;;;17.60;73.00;;;;;;5091883;28;20429;-71
2022/04/22 11:58:20;;;;;;;7.23;5.30;;;17.80;70.00;;;;;;5091220;28;21032;-71
2022/04/22 12:06:18;;;;;;;6.20;5.30;;;18.60;45.40;;;;;;5080627;28;20833;-71
2022/04/22 12:08:54;;;;;;;6.80;5.17;;;18.70;41.90;;;;;;5091411;28;20579;-72
2022/04/22 12:11:21;;;;;;;9.43;5.63;;;18.60;37.50;;;;;;5092056;28;20437;-72
2022/04/22 12:13:49;;;;;;;7.10;5.57;;;18.70;35.30;;;;;;5090926;28;20848;-72
2022/04/22 12:16:19;;;;;;;8.93;6.20;;;18.60;30.50;;;;;;5091608;28;20552;-72
2022/04/22 12:18:49;;;;;;;4.97;4.57;;;18.30;32.00;;;;;;5091217;28;20680;-72
2022/04/22 12:21:17;;;;;;;7.20;4.73;;;18.30;33.00;;;;;;5091507;28;20810;-72
2022/04/22 12:23:45;;;;;;;6.77;4.50;;;18.70;32.80;;;;;;5090796;28;20514;-71
2022/04/22 12:26:17;;;;;;;5.10;3.93;;;;;;;;;;5091229;28;20505;-71
2022/04/22 12:29:00;;;;;;;8.07;5.50;;;;;;;;;;5077858;28;20488;-72
2022/04/22 12:31:29;;;;;;;5.50;4.87;;;;;;;;;;5091031;28;20477;-72
2022/04/22 12:33:59;;;;;;;6.17;4.40;;;;;;;;;;5091670;28;20498;-72
2022/04/22 12:36:27;;;;;;;6.73;5.40;;;;;;;;;;5090461;28;20536;-71
2022/04/22 12:38:54;;;;;;;5.87;4.73;;;;;;;;;;5091530;28;20523;-71
2022/04/22 12:41:24;;;;;;;5.87;5.27;;;;;;;;;;5090946;28;20452;-72
2022/04/22 12:43:52;;;;;;;5.10;4.60;;;;;;;;;;5090463;28;20436;-72
2022/04/22 12:52:14;;;;;;;6.10;5.07;;;;;;;;;;5091269;28;20912;-72
2022/04/22 12:54:43;;;;;;;5.73;4.67;;;;;;;;;;5082464;28;20441;-72
2022/04/22 12:57:18;;;;;;;6.50;5.43;;;;;;;;;;5090262;28;20452;-72
2022/04/22 12:59:46;;;;;;;4.97;4.40;;;;;;;;;;5090661;28;20578;-72
2022/04/22 13:02:14;;;;;;;5.20;4.60;;;;;;;;;;5089446;28;20968;-72
2022/04/22 13:04:51;;;;;;;5.80;4.70;;;;;;;;;;5090032;28;20440;-72
2022/04/22 13:07:18;;;;;;;6.10;4.90;;;;;;;;;;5090497;28;20440;-72
2022/04/22 13:09:46;;;;;;;5.17;4.27;;;;;;;;;;5090278;28;20476;-72
2022/04/22 13:12:15;;;;;;;6.63;4.60;;;;;;;;;;5090922;28;20445;-72
2022/04/22 13:14:42;;;;;;;5.80;5.00;;;;;;;;;;5090216;28;20528;-72
2022/04/22 13:17:18;;;;;;;5.13;4.00;;;;;;;;;;5090148;28;20444;-72
2022/04/22 13:19:46;;;;;;;4.60;4.10;;;;;;;;;;5090260;28;20440;-72
2022/04/22 13:22:13;;;;;;;5.60;4.33;;;;;;;;;;5085118;28;20444;-71
2022/04/22 13:24:44;;;;;;;6.63;5.30;;;;;;;;;;5090165;28;20529;-72
2022/04/22 13:27:11;;;;;;;5.37;4.43;;;;;;;;;;5090289;28;20547;-73
2022/04/22 13:29:40;;;;;;;4.63;4.23;;;;;;;;;;5089705;28;20476;-72
2022/04/22 13:32:08;;;;;;;5.27;4.77;;;;;;;;;;5090981;28;20927;-72
2022/04/22 13:34:35;;;;;;;4.50;4.03;;;;;;;;;;5091295;28;20477;-72
2022/04/22 13:37:02;;;;;;;4.60;3.90;;;;;;;;;;5094544;28;20494;-70
2022/04/22 13:39:29;;;;;;;5.10;4.60;;;;;;;;;;5093838;28;20978;-72
2022/04/22 13:41:56;;;;;;;5.47;4.03;;;;;;;;;;5094914;28;20527;-71
2022/04/22 13:52:40;;;;;;;5.53;4.10;;;;;;;;;;5093636;28;20465;-73
2022/04/22 13:55:07;;;;;;;5.20;4.70;;;;;;;;;;5094534;28;20836;-72
2022/04/22 13:57:34;;;;;;;6.83;4.93;;;;;;;;;;5090811;28;20929;-71
2022/04/22 14:00:02;;;;;;;6.17;4.83;;;;;;;;;;5084133;28;21011;-76
2022/04/22 14:02:32;;;;;;;7.40;4.87;;;;;;;;;;5093626;28;20763;-72
2022/04/22 14:05:00;;;;;;;5.60;5.10;;;;;;;;;;5090794;28;21165;-72
2022/04/22 14:07:28;;;;;;;7.13;5.00;;;;;;;;;;5084311;28;20433;-71
2022/04/22 14:09:55;;;;;;;5.17;4.30;;;;;;;;;;5094257;28;20567;-72
2022/04/22 14:12:22;;;;;;;7.30;5.00;;;;;;;;;;5076463;28;20842;-72
2022/04/22 14:14:51;;;;;;;5.30;4.20;;;;;;;;;;5086309;28;21000;-71
2022/04/22 14:17:19;;;;;;;5.47;4.50;;;;;;;;;;5079239;28;20462;-72
2022/04/22 14:19:48;;;;;;;5.27;4.77;;;;;;;;;;5090519;28;20463;-72
2022/04/22 14:22:15;;;;;;;6.60;5.20;;;;;;;;;;5091429;28;20795;-72
2022/04/22 14:24:43;;;;;;;5.23;4.20;;;;;;;;;;5073044;28;20511;-72
2022/04/22 14:27:11;;;;;;;5.00;4.30;;;;;;;;;;5090928;28;20543;-72
2022/04/22 14:29:39;;;;;;;5.70;4.47;;;;;;;;;;5090283;28;20480;-71
2022/04/22 14:32:09;;;;;;;8.20;4.80;;;;;;;;;;5090885;28;20436;-72
2022/04/22 14:34:36;;;;;;;5.93;4.90;;;;;;;;;;5076278;28;20478;-71
2022/04/22 14:37:06;;;;;;;4.97;4.47;;;19.20;29.50;;;;;;5085527;28;20444;-72
2022/04/22 14:39:33;;;;;;;4.53;4.13;;;21.70;1.00;;;;;;5082579;28;20515;-71
2022/04/22 14:42:00;;;;;;;3.80;3.50;;;;;;;;;;5084348;28;20459;-72
2022/04/22 14:44:27;;;;;;;5.80;4.20;;;22.80;1.00;;;;;;5080860;28;20457;-72
2022/04/22 14:46:54;;;;;;;5.10;4.60;;;23.30;1.00;;;;;;5084556;28;20449;-72
2022/04/22 14:49:21;;;;;;;5.60;4.50;;;23.60;1.00;;;;;;5091012;28;20477;-72
2022/04/22 14:51:50;;;;;;;4.43;4.00;;;24.30;1.00;;;;;;5088133;28;20523;-72
2022/04/22 14:54:18;;;;;;;4.97;3.73;;;24.30;1.00;;;;;;5087827;28;20949;-72
2022/04/22 14:56:45;;;;;;;5.33;4.50;;;24.20;1.00;;;;;;5089418;28;20505;-72
2022/04/22 14:59:12;;;;;;;4.30;3.90;;;24.50;1.00;;;;;;5090863;28;20618;-72
2022/04/22 15:01:39;;;;;;;4.60;3.80;;;23.90;1.00;;;;;;5089880;28;20447;-72
2022/04/22 15:04:07;;;;;;;4.67;4.20;;;24.50;1.00;;;;;;5076731;28;20449;-72
2022/04/22 15:06:35;;;;;;;4.87;3.57;;;24.90;1.00;;;;;;5069424;28;20534;-72
2022/04/22 15:09:02;;;;;;;4.53;4.10;;;25.60;1.00;;;;;;5089457;28;20272;-72
2022/04/22 15:11:30;;;;;;;4.13;3.73;;;24.80;1.00;;;;;;5077845;28;20229;-72
2022/04/22 15:14:02;;;;;;;5.00;4.50;;;;;;;;;;5082739;28;20222;-73
2022/04/22 15:16:29;;;;;;;4.93;4.23;;;;;;;;;;5082509;28;20829;-72
2022/04/22 15:24:25;;;;;;;4.90;4.47;;;22.90;1.00;;;;;;5081343;28;21159;-73
2022/04/22 15:26:54;;;;;;;4.10;3.67;;;24.10;1.00;;;;;;5089911;28;20520;-72
2022/04/22 15:29:21;;;;;;;3.73;3.43;;;24.90;1.00;;;;;;5076182;28;20980;-72
2022/04/22 15:31:48;;;;;;;4.90;4.17;;;25.20;1.00;;;;;;5088736;28;20460;-73
2022/04/22 15:34:16;;;;;;;5.77;5.23;;;25.60;1.00;;;;;;5087013;28;20452;-74
2022/04/22 15:36:43;;;;;;;4.03;3.63;;;26.10;1.00;;;;;;5090119;28;20448;-73
2022/04/22 15:39:10;;;;;;;4.80;4.23;;;26.40;1.00;;;;;;5091935;28;20861;-73
2022/04/22 15:41:37;;;;;;;4.90;4.30;;;26.40;1.00;;;;;;5085306;28;20218;-73
2022/04/22 15:44:06;;;;;;;4.30;4.00;;;25.30;1.00;;;;;;5089723;28;20197;-73
2022/04/22 15:46:33;;;;;;;6.40;4.30;;;25.80;1.00;;;;;;5081267;28;20186;-70